Time;durP1;ratioP1;P1;durP2;ratioP2;P2;SDS_P1;SDS_P2;PMS_P1;PMS_P2;Temp;Humidity;BMP_temperature;BMP_pressure;BME280_temperature;BME280_humidity;BME280_pressure;Samples;Min_cycle;Max_cycle;Signal;HPM_P1;HPM_P2
2023/10/19 00:00:56;;;;;;;22.42;12.77;;;;;;;8.24;73.64;95240.72;5016955;28;20361;-75
2023/10/19 00:03:23;;;;;;;22.90;13.45;;;;;;;8.86;73.15;95341.97;5009039;28;20049;-75
2023/10/19 00:05:49;;;;;;;26.58;13.27;;;;;;;8.78;73.33;95334.53;5023249;28;20580;-75
2023/10/19 00:08:16;;;;;;;20.23;12.57;;;;;;;8.58;73.82;95296.66;5018639;28;20632;-75
2023/10/19 00:10:43;;;;;;;26.23;12.95;;;;;;;8.85;73.55;95327.16;5002052;28;20038;-75
2023/10/19 00:13:11;;;;;;;22.23;11.85;;;;;;;8.72;73.97;95327.66;5000450;28;20571;-75
2023/10/19 00:15:54;;;;;;;23.08;13.38;;;;;;;8.58;74.15;95310.66;5020808;28;20060;-76
2023/10/19 00:18:21;;;;;;;22.02;12.82;;;;;;;8.43;73.70;95303.47;5015551;28;20068;-76
2023/10/19 00:20:52;;;;;;;21.17;11.68;;;;;;;8.48;74.90;95324.63;5011795;28;20045;-76
2023/10/19 00:23:21;;;;;;;25.48;14.30;;;;;;;8.26;74.35;95272.94;5013496;28;20164;-76
2023/10/19 00:25:57;;;;;;;22.05;12.90;;;;;;;8.49;74.87;95315.66;5019586;28;20049;-76
2023/10/19 00:28:22;;;;;;;20.10;11.95;;;;;;;8.55;75.07;95318.31;4994254;28;20476;-76
2023/10/19 00:30:51;;;;;;;22.52;12.90;;;;;;;8.48;74.24;95290.25;5018579;28;20042;-75
2023/10/19 00:33:21;;;;;;;21.67;13.82;;;;;;;8.61;74.49;95307.53;5024633;28;20025;-76
2023/10/19 00:41:31;;;;;;;24.35;12.32;;;;;;;8.44;73.68;95270.69;5027125;28;20073;-76
2023/10/19 00:44:02;;;;;;;19.95;12.23;;;;;;;8.49;73.80;95280.47;5030907;28;20041;-76
2023/10/19 00:49:05;;;;;;;23.30;13.05;;;;;;;8.28;73.71;95268.19;5010804;28;20124;-76
2023/10/19 00:54:26;;;;;;;18.10;11.90;;;;;;;8.26;73.55;95239.38;5014363;28;20034;-76
2023/10/19 00:56:55;;;;;;;18.48;11.15;;;;;;;8.65;73.47;95302.50;5000518;28;20509;-76
2023/10/19 00:59:24;;;;;;;20.92;12.70;;;;;;;8.40;72.94;95259.03;5024698;28;20137;-76
2023/10/19 01:02:03;;;;;;;21.55;12.88;;;;;;;8.46;73.13;95284.47;4995174;28;20441;-76
2023/10/19 01:04:34;;;;;;;21.25;12.75;;;;;;;8.63;72.90;95308.03;5004751;28;20045;-76
2023/10/19 01:07:11;;;;;;;19.60;12.13;;;;;;;8.46;73.25;95271.25;5011154;28;20099;-76
2023/10/19 01:09:38;;;;;;;21.55;13.10;;;;;;;8.63;72.54;95302.75;4993039;28;20065;-76
2023/10/19 01:12:46;;;;;;;25.13;13.60;;;;;;;8.29;73.28;95273.22;5010480;28;20527;-76
2023/10/19 01:15:17;;;;;;;21.67;13.15;;;;;;;8.58;72.84;95308.03;5004814;28;20041;-76
2023/10/19 01:18:01;;;;;;;22.15;12.80;;;;;;;8.64;72.65;95311.47;5021923;28;20042;-76
2023/10/19 01:28:24;;;;;;;21.77;12.80;;;;;;;8.63;72.47;95315.16;5029881;28;20045;-75
2023/10/19 01:30:52;;;;;;;23.80;13.23;;;;;;;8.46;72.07;95281.00;5009404;28;20536;-74
2023/10/19 01:33:18;;;;;;;19.40;11.85;;;;;;;8.58;72.32;95301.94;5010831;28;20493;-75
2023/10/19 01:38:31;;;;;;;25.77;13.35;;;;;;;8.40;72.54;95289.94;5030605;28;20660;-75
2023/10/19 01:41:01;;;;;;;23.67;12.85;;;;;;;8.29;72.42;95277.72;5000490;28;20046;-75
2023/10/19 01:43:32;;;;;;;22.73;12.40;;;;;;;8.35;72.80;95293.38;5011511;28;20447;-75
2023/10/19 01:46:04;;;;;;;18.25;11.73;;;;;;;8.25;73.01;95282.69;5014409;28;20412;-77
2023/10/19 01:48:33;;;;;;;23.55;12.57;;;;;;;8.36;73.00;95294.97;4986105;28;20068;-76
2023/10/19 01:51:07;;;;;;;23.33;12.98;;;;;;;8.30;72.93;95301.25;4994963;28;20076;-76
2023/10/19 01:53:36;;;;;;;23.88;12.68;;;;;;;8.13;73.15;95263.63;4999793;28;20369;-75
2023/10/19 01:56:09;;;;;;;24.33;12.70;;;;;;;8.36;73.16;95296.81;4983239;28;21863;-76
2023/10/19 01:58:36;;;;;;;22.55;12.80;;;;;;;8.28;73.78;95311.28;5001132;28;20534;-75
2023/10/19 02:01:08;;;;;;;23.02;13.25;;;;;;;8.34;73.95;95301.53;5015973;28;20585;-75
2023/10/19 02:03:35;;;;;;;26.50;13.73;;;;;;;8.40;73.84;95303.97;5010921;28;20424;-75
2023/10/19 02:06:16;;;;;;;24.35;13.73;;;;;;;8.24;74.66;95277.69;5028568;28;20061;-76
2023/10/19 02:08:50;;;;;;;27.65;12.52;;;;;;;8.48;74.31;95294.75;5004592;28;20038;-75
2023/10/19 02:11:20;;;;;;;22.73;12.57;;;;;;;8.57;74.01;95306.44;5011559;28;20084;-75
2023/10/19 02:13:46;;;;;;;20.17;12.07;;;;;;;8.51;74.02;95292.41;5023566;28;20045;-75
2023/10/19 02:16:14;;;;;;;21.17;12.73;;;;;;;8.62;73.82;95305.69;5028484;28;20041;-75
2023/10/19 02:18:42;;;;;;;23.60;13.50;;;;;;;8.44;73.62;95283.13;4993321;28;20042;-75
2023/10/19 02:21:11;;;;;;;26.40;13.00;;;;;;;8.46;73.89;95287.09;5021114;28;20049;-75
2023/10/19 02:23:38;;;;;;;27.63;14.55;;;;;;;8.61;73.65;95312.00;4994408;28;20045;-75
2023/10/19 02:26:04;;;;;;;21.00;12.55;;;;;;;8.54;74.06;95312.25;5011073;28;20029;-75
2023/10/19 02:28:37;;;;;;;23.35;13.02;;;;;;;8.57;74.29;95306.44;4995363;28;20237;-75
2023/10/19 02:31:16;;;;;;;25.17;13.57;;;;;;;8.35;73.83;95271.44;5024925;28;20038;-75
2023/10/19 02:33:45;;;;;;;27.75;14.60;;;;;;;8.64;73.84;95307.00;5017041;28;20030;-75
2023/10/19 02:36:16;;;;;;;28.10;12.90;;;;;;;8.59;73.60;95291.13;5002824;28;20479;-76
2023/10/19 02:38:48;;;;;;;21.08;12.23;;;;;;;8.58;73.92;95305.38;5003020;28;20041;-76
2023/10/19 02:41:17;;;;;;;23.75;12.18;;;;;;;8.42;74.01;95283.38;4999210;28;20045;-76
2023/10/19 02:43:50;;;;;;;20.70;13.35;;;;;;;8.65;73.79;95307.78;5009409;28;20509;-76
2023/10/19 02:46:17;;;;;;;27.77;14.00;;;;;;;8.39;74.31;95288.38;5016980;28;20053;-76
2023/10/19 02:48:49;;;;;;;20.80;12.63;;;;;;;8.39;74.16;95297.06;5006005;28;20038;-76
2023/10/19 02:51:15;;;;;;;22.92;13.02;;;;;;;8.26;74.22;95278.22;4994030;28;20041;-76
2023/10/19 02:53:42;;;;;;;23.88;12.90;;;;;;;8.06;74.38;95255.94;5019718;28;20030;-76
2023/10/19 02:56:16;;;;;;;22.60;12.63;;;;;;;8.30;74.47;95284.59;4997526;28;20041;-76
2023/10/19 02:58:43;;;;;;;21.73;13.80;;;;;;;8.42;74.63;95306.34;5029451;28;20041;-76
2023/10/19 03:01:21;;;;;;;30.02;13.88;;;;;;;8.46;74.40;95308.25;5013234;28;20041;-76
2023/10/19 03:03:54;;;;;;;24.02;13.32;;;;;;;8.36;73.71;95289.69;5000879;28;20038;-76
2023/10/19 03:06:20;;;;;;;23.63;13.15;;;;;;;8.11;74.29;95266.50;5006947;28;20405;-76
2023/10/19 03:08:47;;;;;;;21.73;13.32;;;;;;;8.25;74.11;95276.63;4994536;28;20099;-76
2023/10/19 03:11:14;;;;;;;27.70;13.10;;;;;;;8.13;74.12;95250.41;5008868;28;20102;-76
2023/10/19 03:13:41;;;;;;;21.80;13.00;;;;;;;8.30;73.89;95281.97;5014130;28;20539;-76
2023/10/19 03:16:07;;;;;;;23.15;13.00;;;;;;;8.14;74.20;95268.66;5008797;28;20543;-76
2023/10/19 03:18:34;;;;;;;25.05;13.15;;;;;;;7.79;73.82;95228.81;4999808;28;20099;-76
2023/10/19 03:21:02;;;;;;;25.60;13.43;;;;;;;7.81;74.15;95225.91;5009357;28;20519;-76
2023/10/19 03:23:28;;;;;;;27.55;14.00;;;;;;;8.28;73.96;95297.25;5000973;28;20562;-76
2023/10/19 03:28:42;;;;;;;24.08;13.80;;;;;;;8.18;74.46;95289.28;5024174;28;20466;-76
2023/10/19 03:31:08;;;;;;;23.67;13.82;;;;;;;8.31;73.79;95305.53;4999960;28;20046;-76
2023/10/19 03:33:36;;;;;;;23.90;13.63;;;;;;;8.33;74.27;95297.31;5004141;28;20042;-76
2023/10/19 03:36:04;;;;;;;31.02;13.80;;;;;;;8.27;73.91;95301.75;4997847;28;20127;-76
2023/10/19 03:38:34;;;;;;;21.50;12.85;;;;;;;8.05;74.10;95256.19;5029143;28;20443;-76
2023/10/19 03:41:06;;;;;;;23.88;13.52;;;;;;;8.25;74.10;95279.25;5029782;28;20068;-76
2023/10/19 03:43:32;;;;;;;22.48;13.50;;;;;;;8.32;73.45;95285.94;5010554;28;20133;-76
2023/10/19 03:45:59;;;;;;;23.60;13.73;;;;;;;7.42;73.46;95164.69;5008845;28;20037;-76
2023/10/19 03:48:26;;;;;;;24.10;13.98;;;;;;;8.24;73.91;95272.41;5011641;28;20045;-76
2023/10/19 03:50:58;;;;;;;30.58;14.25;;;;;;;7.63;74.20;95209.44;5028076;28;20030;-76
2023/10/19 03:53:23;;;;;;;;;;;;;;;8.05;74.08;95280.75;5008909;28;20095;-76
2023/10/19 03:55:54;;;;;;;27.65;13.50;;;;;;;7.96;73.96;95260.34;5016841;28;19918;-76
2023/10/19 03:58:20;;;;;;;23.77;14.10;;;;;;;8.08;74.12;95279.47;5004986;28;20439;-76
2023/10/19 04:00:49;;;;;;;29.73;14.65;;;;;;;8.01;73.85;95263.81;5008228;28;20038;-76
2023/10/19 04:03:17;;;;;;;23.83;13.88;;;;;;;8.07;74.36;95270.72;5010326;28;20556;-76
2023/10/19 04:05:46;;;;;;;28.50;13.60;;;;;;;7.94;74.33;95259.78;5009837;28;20046;-76
2023/10/19 04:08:14;;;;;;;26.27;14.35;;;;;;;7.84;73.86;95251.81;5018050;28;20517;-76
2023/10/19 04:13:36;;;;;;;24.05;14.35;;;;;;;8.03;74.19;95274.13;4930439;28;20098;-76
2023/10/19 04:16:02;;;;;;;26.75;13.25;;;;;;;7.92;74.02;95270.63;5005801;28;20456;-77
2023/10/19 04:18:28;;;;;;;26.23;14.30;;;;;;;8.00;74.50;95282.56;5000996;28;20042;-80
2023/10/19 04:20:55;;;;;;;35.38;15.50;;;;;;;7.92;74.18;95269.84;4993238;28;20036;-79
2023/10/19 04:23:27;;;;;;;33.33;16.20;;;;;;;7.93;73.71;95276.72;4997967;28;20037;-79
2023/10/19 04:26:04;;;;;;;35.28;16.13;;;;;;;7.97;74.31;95280.44;5010030;28;20041;-80
2023/10/19 04:28:44;;;;;;;32.70;16.52;;;;;;;7.89;74.33;95262.41;4991833;28;20361;-78
2023/10/19 04:31:13;;;;;;;35.15;16.35;;;;;;;7.85;73.70;95235.75;4984106;28;20106;-78
2023/10/19 04:33:42;;;;;;;31.67;16.58;;;;;;;7.63;74.43;95221.84;4983339;28;20038;-79
2023/10/19 04:36:11;;;;;;;34.47;16.33;;;;;;;7.80;74.06;95232.25;5000423;28;20083;-78
2023/10/19 04:38:36;;;;;;;32.65;17.58;;;;;;;7.48;74.21;95176.88;4983527;28;20041;-78
2023/10/19 04:41:10;;;;;;;33.00;16.27;;;;;;;7.40;74.42;95174.72;5012244;28;20076;-79
2023/10/19 04:43:37;;;;;;;31.73;16.08;;;;;;;7.97;74.33;95261.94;4990114;28;20540;-78
2023/10/19 04:46:13;;;;;;;33.65;17.23;;;;;;;7.51;74.63;95200.13;4998509;28;20054;-80
2023/10/19 04:48:40;;;;;;;28.40;17.33;;;;;;;7.73;75.01;95257.03;4989264;28;20050;-80
2023/10/19 04:51:11;;;;;;;38.05;19.48;;;;;;;7.55;74.58;95204.63;4992014;28;20414;-79
2023/10/19 04:53:38;;;;;;;37.08;19.00;;;;;;;7.13;74.23;95132.56;4988804;28;20041;-79
2023/10/19 04:56:08;;;;;;;33.28;17.48;;;;;;;7.92;74.42;95254.78;5005579;28;20262;-78
2023/10/19 04:58:35;;;;;;;30.33;17.33;;;;;;;7.98;74.56;95259.06;5009508;28;20065;-80
2023/10/19 05:01:03;;;;;;;31.08;18.50;;;;;;;7.99;74.36;95258.00;4980907;28;20131;-77
2023/10/19 05:03:29;;;;;;;32.25;17.55;;;;;;;7.94;74.46;95260.59;4974958;28;20435;-80
2023/10/19 05:05:56;;;;;;;31.70;18.27;;;;;;;8.02;74.10;95260.13;4981905;28;20136;-79
2023/10/19 05:08:24;;;;;;;35.22;18.67;;;;;;;7.92;74.22;95254.00;4973271;28;20102;-78
2023/10/19 05:10:52;;;;;;;33.40;17.90;;;;;;;7.49;74.22;95191.66;4991710;28;20080;-78
2023/10/19 05:13:19;;;;;;;33.25;19.10;;;;;;;7.99;74.41;95260.66;5007749;28;20057;-76
2023/10/19 05:15:44;;;;;;;32.63;18.90;;;;;;;7.75;74.43;95222.47;5008355;28;20045;-78
2023/10/19 05:18:10;;;;;;;39.03;19.33;;;;;;;7.90;74.23;95246.31;5013183;28;20053;-76
2023/10/19 05:20:40;;;;;;;38.78;19.20;;;;;;;8.11;74.14;95265.72;4985632;28;20088;-79
2023/10/19 05:23:08;;;;;;;41.37;20.80;;;;;;;8.05;74.23;95264.91;4984175;28;20041;-76
2023/10/19 05:25:36;;;;;;;35.08;20.55;;;;;;;7.39;74.16;95159.94;4989923;28;20125;-77
2023/10/19 05:28:05;;;;;;;36.10;20.35;;;;;;;8.09;74.40;95263.31;5013967;28;20061;-76
2023/10/19 05:30:35;;;;;;;37.33;20.23;;;;;;;8.06;74.55;95253.28;4996529;28;20045;-76
2023/10/19 05:33:03;;;;;;;39.88;21.10;;;;;;;7.91;74.48;95223.34;5011811;28;20060;-75
2023/10/19 05:35:29;;;;;;;41.92;21.10;;;;;;;7.96;74.86;95257.69;5008915;28;20061;-76
2023/10/19 05:37:58;;;;;;;38.22;22.40;;;;;;;7.95;74.58;95262.19;4992576;28;20045;-76
2023/10/19 05:40:29;;;;;;;45.90;22.40;;;;;;;7.65;74.50;95232.94;5013692;28;20140;-77
2023/10/19 05:43:00;;;;;;;40.05;22.83;;;;;;;7.55;75.37;95220.47;5008898;28;20292;-77
2023/10/19 05:45:27;;;;;;;58.35;23.95;;;;;;;7.93;75.97;95288.06;4990881;28;20049;-76
2023/10/19 05:47:53;;;;;;;47.25;23.48;;;;;;;7.69;75.78;95234.03;4990472;28;20041;-75
2023/10/19 05:50:19;;;;;;;52.15;24.98;;;;;;;7.58;75.76;95201.50;4988190;28;20041;-75
2023/10/19 05:52:45;;;;;;;49.50;23.20;;;;;;;7.73;75.63;95208.72;4995398;28;20064;-76
2023/10/19 05:55:10;;;;;;;45.65;23.75;;;;;;;8.24;75.65;95281.13;4993633;28;20112;-75
2023/10/19 05:57:40;;;;;;;46.08;23.33;;;;;;;8.08;75.39;95234.56;5003480;28;20223;-75
2023/10/19 06:00:13;;;;;;;47.15;23.25;;;;;;;8.39;75.16;95283.88;5019150;28;20048;-75
2023/10/19 06:02:48;;;;;;;48.45;22.13;;;;;;;8.41;75.01;95283.63;5005040;28;20714;-77
2023/10/19 06:05:15;;;;;;;46.80;22.35;;;;;;;8.14;75.60;95236.97;4993566;28;20095;-76
2023/10/19 06:07:49;;;;;;;42.95;20.15;;;;;;;8.35;75.58;95258.22;4992601;28;20063;-75
2023/10/19 06:10:17;;;;;;;53.53;21.95;;;;;;;8.65;75.16;95279.50;4993609;28;20073;-75
2023/10/19 06:12:44;;;;;;;47.67;21.10;;;;;;;8.69;74.04;95277.94;4979063;28;20767;-76
2023/10/19 06:15:14;;;;;;;36.17;19.35;;;;;;;8.69;74.12;95280.59;4990692;28;20132;-75
2023/10/19 06:17:41;;;;;;;43.60;21.38;;;;;;;8.72;74.47;95258.09;5004694;28;20037;-77
2023/10/19 06:20:08;;;;;;;42.30;20.23;;;;;;;8.77;73.79;95244.91;5016928;28;20049;-77
2023/10/19 06:22:37;;;;;;;45.45;20.63;;;;;;;8.87;73.56;95253.66;5005999;28;20048;-78
2023/10/19 06:25:06;;;;;;;45.75;21.00;;;;;;;9.13;72.88;95290.78;5016906;28;20033;-77
2023/10/19 06:27:32;;;;;;;42.22;19.50;;;;;;;9.31;72.44;95277.03;5003889;28;20231;-77
2023/10/19 06:29:58;;;;;;;36.72;20.30;;;;;;;9.41;72.18;95278.91;5009600;28;20133;-77
2023/10/19 06:32:23;;;;;;;38.10;20.35;;;;;;;8.83;71.78;95189.13;5006462;28;20045;-77
2023/10/19 06:34:50;;;;;;;35.55;18.65;;;;;;;9.55;72.28;95277.31;5028736;28;20105;-78
2023/10/19 06:37:15;;;;;;;33.03;17.20;;;;;;;9.52;71.52;95246.09;5003601;28;20426;-76
2023/10/19 06:39:41;;;;;;;34.15;17.73;;;;;;;9.54;71.54;95247.41;4995256;28;20413;-77
2023/10/19 06:42:13;;;;;;;22.08;13.63;;;;;;;9.74;71.72;95267.00;5008675;28;20181;-77
2023/10/19 06:44:42;;;;;;;20.95;11.93;;;;;;;9.94;71.60;95291.63;5014507;28;20129;-77
2023/10/19 06:47:10;;;;;;;18.27;11.45;;;;;;;9.92;71.48;95277.03;4991470;28;20045;-78
2023/10/19 06:49:36;;;;;;;19.23;10.13;;;;;;;9.29;71.47;95182.03;4997537;28;20179;-77
2023/10/19 06:52:04;;;;;;;30.27;12.30;;;;;;;9.94;70.86;95264.34;5003082;28;20600;-77
2023/10/19 06:54:30;;;;;;;21.13;11.52;;;;;;;9.99;70.25;95259.81;4978940;28;20286;-77
2023/10/19 06:56:56;;;;;;;36.33;19.88;;;;;;;10.19;70.36;95268.84;4993062;28;20034;-76
2023/10/19 06:59:21;;;;;;;41.90;19.85;;;;;;;9.96;69.04;95247.13;5004755;28;20513;-76
2023/10/19 07:01:47;;;;;;;50.38;22.17;;;;;;;10.29;69.25;95251.06;4998373;28;20140;-74
2023/10/19 07:04:13;;;;;;;47.40;22.88;;;;;;;10.47;68.73;95251.53;5000654;28;20402;-77
2023/10/19 07:06:38;;;;;;;40.42;19.98;;;;;;;10.47;68.51;95244.38;5001552;28;20152;-76
2023/10/19 07:09:05;;;;;;;45.67;19.77;;;;;;;10.55;68.71;95253.63;5008207;28;20151;-76
2023/10/19 07:11:33;;;;;;;25.75;16.45;;;;;;;10.71;69.11;95253.28;4995317;28;20099;-76
2023/10/19 07:13:59;;;;;;;22.02;14.48;;;;;;;10.88;68.42;95265.44;5013854;28;20164;-76
2023/10/19 07:16:26;;;;;;;21.83;13.15;;;;;;;10.57;70.60;95230.28;4996477;28;20033;-75
2023/10/19 07:18:53;;;;;;;23.00;13.88;;;;;;;10.54;69.78;95202.44;5011957;28;20120;-76
2023/10/19 07:21:18;;;;;;;28.10;15.27;;;;;;;10.93;69.08;95273.34;4992373;28;20212;-77
2023/10/19 07:23:45;;;;;;;21.67;14.05;;;;;;;10.92;69.03;95234.63;5006137;28;20675;-76
2023/10/19 07:26:14;;;;;;;28.67;15.50;;;;;;;11.02;68.31;95239.88;4994467;28;20048;-77
2023/10/19 07:28:40;;;;;;;28.65;15.18;;;;;;;10.59;68.64;95210.38;4994742;28;20046;-76
2023/10/19 07:31:12;;;;;;;26.75;15.23;;;;;;;11.18;68.57;95270.56;5011128;28;20156;-76
2023/10/19 07:33:42;;;;;;;26.77;15.73;;;;;;;11.37;68.40;95273.38;4992429;28;20053;-74
2023/10/19 07:36:14;;;;;;;23.77;14.43;;;;;;;11.47;68.26;95266.13;4998330;28;20048;-74
2023/10/19 07:38:39;;;;;;;27.23;15.27;;;;;;;11.57;67.53;95279.34;5012528;28;20048;-74
2023/10/19 07:41:05;;;;;;;23.02;13.85;;;;;;;10.44;67.30;95149.47;5009761;28;20049;-77
2023/10/19 07:43:31;;;;;;;23.00;15.10;;;;;;;11.36;67.02;95253.22;5002959;28;20045;-74
2023/10/19 07:45:56;;;;;;;26.30;14.77;;;;;;;11.08;67.20;95238.78;4989582;28;20520;-74
2023/10/19 07:48:22;;;;;;;20.67;14.30;;;;;;;11.01;67.04;95223.16;4993875;28;20041;-75
2023/10/19 07:50:47;;;;;;;26.10;15.77;;;;;;;11.22;67.49;95253.00;4992934;28;20138;-74
2023/10/19 07:53:13;;;;;;;32.05;16.13;;;;;;;10.81;66.78;95183.47;4990012;28;20045;-77
2023/10/19 07:55:39;;;;;;;29.85;16.73;;;;;;;11.38;66.49;95274.94;4997170;28;20049;-75
2023/10/19 07:58:08;;;;;;;27.73;15.05;;;;;;;11.34;67.16;95256.13;4994126;28;20081;-75
2023/10/19 08:00:34;;;;;;;24.65;15.60;;;;;;;11.28;67.17;95262.56;4999521;28;20109;-74
2023/10/19 08:02:59;;;;;;;27.85;14.52;;;;;;;11.31;66.59;95264.63;4987773;28;20055;-75
2023/10/19 08:05:26;;;;;;;24.02;13.75;;;;;;;11.27;66.56;95274.25;5010146;28;20042;-74
2023/10/19 08:07:52;;;;;;;18.98;13.93;;;;;;;10.98;66.67;95246.81;4996599;28;20128;-74
2023/10/19 08:10:19;;;;;;;30.83;13.55;;;;;;;11.07;66.78;95259.22;4990723;28;20056;-75
2023/10/19 08:12:49;;;;;;;23.00;14.27;;;;;;;11.11;66.72;95286.00;4981711;28;20089;-74
2023/10/19 08:15:17;;;;;;;25.67;13.73;;;;;;;11.11;67.10;95286.81;4982015;28;20033;-74
2023/10/19 08:17:45;;;;;;;22.88;14.20;;;;;;;10.90;67.02;95260.66;4989989;28;20061;-77
2023/10/19 08:20:26;;;;;;;23.42;13.57;;;;;;;10.65;68.11;95243.78;4989623;28;20042;-75
2023/10/19 08:22:53;;;;;;;22.50;13.43;;;;;;;10.80;68.28;95245.56;4980187;28;20667;-76
2023/10/19 08:25:19;;;;;;;20.92;13.95;;;;;;;10.99;67.71;95267.75;4971138;28;20050;-77
2023/10/19 08:27:45;;;;;;;22.67;14.02;;;;;;;10.87;69.37;95247.91;4982929;28;20049;-76
2023/10/19 08:30:15;;;;;;;20.88;13.30;;;;;;;10.91;68.35;95233.06;4979285;28;20041;-77
2023/10/19 08:32:41;;;;;;;20.70;11.18;;;;;;;10.95;68.30;95229.56;4986449;28;20836;-76
2023/10/19 08:35:08;;;;;;;26.88;14.98;;;;;;;10.76;67.64;95192.25;4982253;28;20615;-77
2023/10/19 08:37:34;;;;;;;20.98;13.23;;;;;;;11.35;67.70;95268.34;4989813;28;20041;-76
2023/10/19 08:40:00;;;;;;;18.25;12.90;;;;;;;11.33;67.78;95243.13;4989202;28;20408;-75
2023/10/19 08:42:34;;;;;;;23.67;12.30;;;;;;;10.96;67.51;95186.03;5103839;27;20413;-77
2023/10/19 08:45:00;;;;;;;18.48;12.15;;;;;;;11.58;68.01;95266.88;5072720;28;20442;-74
2023/10/19 08:47:26;;;;;;;19.90;12.43;;;;;;;11.73;67.53;95277.38;5067875;28;20038;-75
2023/10/19 08:49:53;;;;;;;23.40;13.30;;;;;;;11.74;67.43;95262.22;5057777;28;20105;-75
2023/10/19 08:52:22;;;;;;;22.33;13.38;;;;;;;11.70;67.52;95239.94;5051878;28;20372;-74
2023/10/19 08:54:48;;;;;;;23.52;13.70;;;;;;;11.85;67.87;95255.78;5045864;28;20035;-76
2023/10/19 08:57:14;;;;;;;26.33;13.93;;;;;;;12.01;67.48;95262.53;5078275;28;20538;-75
2023/10/19 08:59:39;;;;;;;19.50;12.32;;;;;;;12.09;66.79;95263.81;5077938;28;20043;-75
2023/10/19 09:02:06;;;;;;;23.50;12.40;;;;;;;12.10;66.36;95265.38;5063211;28;20543;-74
2023/10/19 09:04:40;;;;;;;26.67;12.38;;;;;;;12.09;66.08;95259.28;5069264;28;20055;-74
2023/10/19 09:07:10;;;;;;;21.23;12.35;;;;;;;12.20;66.23;95263.44;5071419;28;20032;-74
2023/10/19 09:09:39;;;;;;;26.20;13.50;;;;;;;12.31;66.06;95251.59;5071047;28;20162;-74
2023/10/19 09:12:07;;;;;;;32.38;11.90;;;;;;;12.37;65.16;95244.38;5069225;28;20126;-75
2023/10/19 09:14:41;;;;;;;21.23;12.77;;;;;;;12.45;65.56;95253.59;5068736;28;20405;-74
2023/10/19 09:17:07;;;;;;;22.25;12.07;;;;;;;12.43;65.09;95245.91;5084706;28;20203;-75
2023/10/19 09:19:44;;;;;;;21.60;11.93;;;;;;;12.24;65.85;95199.84;5063331;28;20032;-74
2023/10/19 09:22:19;;;;;;;20.70;12.35;;;;;;;12.56;65.73;95215.97;5065703;28;20035;-75
2023/10/19 09:24:49;;;;;;;18.10;10.70;;;;;;;12.74;64.61;95227.69;5064266;28;20108;-75
2023/10/19 09:27:17;;;;;;;19.33;10.27;;;;;;;12.85;64.51;95215.84;5071612;28;20154;-75
2023/10/19 09:29:43;;;;;;;19.98;10.80;;;;;;;13.01;64.30;95214.59;5069346;28;20852;-74
2023/10/19 09:32:09;;;;;;;32.00;11.73;;;;;;;13.25;63.61;95227.84;5070412;28;20043;-75
2023/10/19 09:34:35;;;;;;;18.55;11.38;;;;;;;13.08;62.69;95175.06;5064247;28;20144;-74
2023/10/19 09:37:03;;;;;;;22.17;12.90;;;;;;;13.48;62.79;95202.22;5068120;28;20040;-77
2023/10/19 09:39:36;;;;;;;21.95;12.88;;;;;;;13.66;63.16;95200.56;5072788;28;20437;-75
2023/10/19 09:42:11;;;;;;;23.25;12.63;;;;;;;13.79;62.36;95197.97;5069940;28;20511;-76
2023/10/19 09:44:42;;;;;;;20.30;11.85;;;;;;;14.01;61.19;95199.97;5072273;28;20051;-75
2023/10/19 09:47:12;;;;;;;;;;;;;;;13.97;61.09;95204.31;5071321;28;20032;-75
2023/10/19 09:49:42;;;;;;;19.40;10.68;;;;;;;14.03;61.19;95165.81;5071276;28;19932;-75
2023/10/19 09:52:09;;;;;;;24.70;10.00;;;;;;;14.81;60.41;95156.00;5068373;28;20032;-75
2023/10/19 09:54:54;;;;;;;24.42;10.55;;;;;;;15.98;57.27;95196.84;5037371;28;20028;-76
2023/10/19 09:57:32;;;;;;;14.95;9.50;;;;;;;16.82;55.25;95146.63;5048229;28;20711;-76
2023/10/19 10:00:08;;;;;;;14.32;9.52;;;;;;;17.80;52.21;95166.63;5052406;28;20040;-76
2023/10/19 10:02:34;;;;;;;19.50;11.20;;;;;;;18.40;48.72;95161.06;5041783;28;20043;-76
2023/10/19 10:04:59;;;;;;;20.02;10.82;;;;;;;19.21;47.72;95140.06;5042966;28;20043;-76
2023/10/19 10:07:25;;;;;;;15.70;9.82;;;;;;;20.09;45.82;95165.84;5044775;28;20036;-76
2023/10/19 10:09:51;;;;;;;14.55;9.95;;;;;;;20.33;44.14;95159.72;5055824;28;20578;-76
2023/10/19 10:12:25;;;;;;;14.65;8.73;;;;;;;21.01;43.27;95165.34;5056894;28;20037;-76
2023/10/19 10:15:07;;;;;;;12.95;8.35;;;;;;;21.19;41.74;95118.16;5051633;28;20086;-77
2023/10/19 10:17:34;;;;;;;12.93;8.63;;;;;;;21.81;40.63;95117.56;5045074;28;20488;-75
2023/10/19 10:20:17;;;;;;;12.02;8.95;;;;;;;22.40;39.75;95159.97;5047198;28;20068;-76
2023/10/19 10:22:44;;;;;;;11.90;8.38;;;;;;;22.76;39.23;95148.09;5051649;28;20032;-77
2023/10/19 10:25:29;;;;;;;11.68;9.13;;;;;;;23.09;38.13;95156.59;5055844;28;20024;-76
2023/10/19 10:27:55;;;;;;;16.33;8.88;;;;;;;22.80;38.78;95150.91;5047811;28;20060;-75
2023/10/19 10:30:24;;;;;;;11.77;8.05;;;;;;;22.61;38.82;95119.94;5042569;28;20028;-77
2023/10/19 10:32:56;;;;;;;15.07;8.20;;;;;;;23.05;38.15;95144.13;5032604;28;20068;-77
2023/10/19 10:35:37;;;;;;;15.65;7.28;;;;;;;23.23;37.19;95141.81;5032167;28;20036;-77
2023/10/19 10:38:08;;;;;;;14.10;8.27;;;;;;;23.38;36.75;95119.31;5044159;28;20032;-77
2023/10/19 10:40:48;;;;;;;11.20;8.13;;;;;;;23.22;37.49;95103.16;5054128;28;20087;-77
2023/10/19 10:43:13;;;;;;;15.35;8.30;;;;;;;23.35;36.74;95096.44;5056868;28;20044;-76
2023/10/19 10:45:39;;;;;;;12.77;7.63;;;;;;;23.29;37.36;95105.22;5071493;28;20040;-77
2023/10/19 10:48:16;;;;;;;13.23;7.07;;;;;;;23.25;37.50;95090.84;5057519;28;20447;-77
2023/10/19 10:50:42;;;;;;;15.00;7.93;;;;;;;23.30;37.36;95090.53;5050250;28;20560;-77
2023/10/19 10:53:17;;;;;;;10.55;7.43;;;;;;;23.06;38.13;95083.47;5053365;28;20040;-77
2023/10/19 10:55:43;;;;;;;15.35;8.35;;;;;;;23.15;38.08;95067.03;5054862;28;20033;-77
2023/10/19 10:58:08;;;;;;;15.35;8.32;;;;;;;23.36;37.53;95075.59;5057684;28;20081;-77
2023/10/19 11:00:41;;;;;;;16.67;9.20;;;;;;;23.39;36.93;95064.06;5041549;28;20633;-77
2023/10/19 11:03:08;;;;;;;10.55;7.88;;;;;;;23.50;37.01;95056.94;5058966;28;20120;-78
2023/10/19 11:05:35;;;;;;;13.57;8.63;;;;;;;23.67;36.47;95059.19;5058460;28;20032;-78
2023/10/19 11:08:13;;;;;;;12.60;8.18;;;;;;;23.81;36.67;95062.16;5040423;28;20087;-78
2023/10/19 11:10:42;;;;;;;12.63;8.07;;;;;;;23.60;36.75;95055.56;5061278;28;20543;-78
2023/10/19 11:13:09;;;;;;;12.85;8.88;;;;;;;23.39;36.90;95040.50;5051817;28;20032;-77
2023/10/19 11:15:39;;;;;;;13.90;7.03;;;;;;;23.23;37.30;95053.31;5052429;28;20063;-77
2023/10/19 11:18:08;;;;;;;11.35;7.90;;;;;;;22.95;37.64;95050.81;5044660;28;20056;-77
2023/10/19 11:20:34;;;;;;;15.43;7.60;;;;;;;22.61;38.19;95019.94;5046958;28;20039;-77
2023/10/19 11:23:02;;;;;;;13.30;8.00;;;;;;;22.35;38.97;95021.66;5048764;28;20032;-78
2023/10/19 11:25:30;;;;;;;16.77;8.15;;;;;;;22.56;38.71;95022.91;5048841;28;20063;-77
2023/10/19 11:27:57;;;;;;;12.98;8.15;;;;;;;22.57;38.10;95002.88;5052134;28;20048;-77
2023/10/19 11:30:31;;;;;;;13.68;8.68;;;;;;;22.54;38.69;95014.38;5051468;28;20044;-78
2023/10/19 11:32:57;;;;;;;11.13;7.75;;;;;;;22.92;38.28;95002.06;5052776;28;20052;-79
2023/10/19 11:35:29;;;;;;;16.70;7.55;;;;;;;22.92;37.71;94977.72;5055297;28;20036;-77
2023/10/19 11:37:57;;;;;;;8.70;6.63;;;;;;;23.13;37.95;95010.59;5054817;28;20301;-77
2023/10/19 11:40:24;;;;;;;9.57;7.03;;;;;;;23.21;37.77;95015.00;5055022;28;20721;-78
2023/10/19 11:42:50;;;;;;;9.10;6.78;;;;;;;23.29;38.09;95010.50;5044649;28;20129;-79
2023/10/19 11:45:17;;;;;;;11.10;6.38;;;;;;;23.49;37.12;94986.94;5055992;28;20800;-78
2023/10/19 11:47:44;;;;;;;12.52;6.82;;;;;;;23.33;37.29;95003.25;5053837;28;20119;-78
2023/10/19 11:50:15;;;;;;;10.07;6.80;;;;;;;23.52;37.55;94988.91;5055941;28;20625;-78
2023/10/19 11:52:42;;;;;;;10.40;7.32;;;;;;;23.53;37.41;94998.59;5054851;28;20029;-78
2023/10/19 11:55:08;;;;;;;11.45;7.00;;;;;;;23.48;37.18;94980.75;5055762;28;20071;-78
2023/10/19 11:57:35;;;;;;;8.95;6.75;;;;;;;23.56;37.30;94968.13;5056091;28;20448;-78
2023/10/19 12:00:05;;;;;;;8.90;6.25;;;;;;;23.84;36.71;94957.75;5058294;28;20455;-78